sensor_id;sensor_type;location;lat;lon;timestamp;pressure;altitude;pressure_sealevel;temperature;humidity
21102;BME280;10709;49.006;12.100;2023-07-30T00:01:08;48953.69;;;-146.00;100.00
21102;BME280;10709;49.006;12.100;2023-07-30T00:03:35;48965.44;;;-146.00;100.00
21102;BME280;10709;49.006;12.100;2023-07-30T00:06:01;48959.56;;;-146.00;100.00
21102;BME280;10709;49.006;12.100;2023-07-30T00:08:28;48957.59;;;-146.00;100.00
21102;BME280;10709;49.006;12.100;2023-07-30T00:10:57;48953.69;;;-146.00;100.00
21102;BME280;10709;49.006;12.100;2023-07-30T00:13:24;48969.38;;;-146.00;100.00
21102;BME280;10709;49.006;12.100;2023-07-30T00:15:51;48959.56;;;-146.00;100.00
21102;BME280;10709;49.006;12.100;2023-07-30T00:18:18;48969.38;;;-146.00;100.00
21102;BME280;10709;49.006;12.100;2023-07-30T00:20:44;48961.53;;;-146.00;100.00
21102;BME280;10709;49.006;12.100;2023-07-30T00:23:11;48969.38;;;-146.00;100.00
21102;BME280;10709;49.006;12.100;2023-07-30T00:25:37;48967.41;;;-146.00;100.00
21102;BME280;10709;49.006;12.100;2023-07-30T00:28:04;48953.69;;;-146.00;100.00
21102;BME280;10709;49.006;12.100;2023-07-30T00:30:31;48963.50;;;-146.00;100.00
21102;BME280;10709;49.006;12.100;2023-07-30T00:32:57;48965.44;;;-146.00;100.00
21102;BME280;10709;49.006;12.100;2023-07-30T00:35:24;48969.38;;;-146.00;100.00
21102;BME280;10709;49.006;12.100;2023-07-30T00:37:51;48973.28;;;-146.00;100.00
21102;BME280;10709;49.006;12.100;2023-07-30T00:40:17;48961.53;;;-146.00;100.00
21102;BME280;10709;49.006;12.100;2023-07-30T00:42:45;48961.53;;;-146.00;100.00
21102;BME280;10709;49.006;12.100;2023-07-30T00:45:11;48963.50;;;-146.00;100.00
21102;BME280;10709;49.006;12.100;2023-07-30T00:47:38;48951.72;;;-146.00;100.00
21102;BME280;10709;49.006;12.100;2023-07-30T00:50:06;48963.50;;;-146.00;100.00
21102;BME280;10709;49.006;12.100;2023-07-30T00:52:34;48965.44;;;-146.00;100.00
21102;BME280;10709;49.006;12.100;2023-07-30T00:55:04;48963.50;;;-146.00;100.00
21102;BME280;10709;49.006;12.100;2023-07-30T00:57:33;48957.59;;;-146.00;100.00
21102;BME280;10709;49.006;12.100;2023-07-30T01:00:03;48957.59;;;-146.00;100.00
21102;BME280;10709;49.006;12.100;2023-07-30T01:02:36;48957.59;;;-146.00;100.00
21102;BME280;10709;49.006;12.100;2023-07-30T01:05:03;48941.94;;;-146.00;100.00
21102;BME280;10709;49.006;12.100;2023-07-30T01:07:30;48965.44;;;-146.00;100.00
21102;BME280;10709;49.006;12.100;2023-07-30T01:09:58;48939.97;;;-146.00;100.00
21102;BME280;10709;49.006;12.100;2023-07-30T01:12:26;48957.59;;;-146.00;100.00
21102;BME280;10709;49.006;12.100;2023-07-30T01:14:55;48947.81;;;-146.00;100.00
21102;BME280;10709;49.006;12.100;2023-07-30T01:17:22;48961.53;;;-146.00;100.00
21102;BME280;10709;49.006;12.100;2023-07-30T01:19:49;48938.03;;;-146.00;100.00
21102;BME280;10709;49.006;12.100;2023-07-30T01:22:22;48957.59;;;-146.00;100.00
21102;BME280;10709;49.006;12.100;2023-07-30T01:24:48;48949.78;;;-146.00;100.00
21102;BME280;10709;49.006;12.100;2023-07-30T01:27:21;48938.03;;;-146.00;100.00
21102;BME280;10709;49.006;12.100;2023-07-30T01:29:51;48941.94;;;-146.00;100.00
21102;BME280;10709;49.006;12.100;2023-07-30T01:32:25;48938.03;;;-146.00;100.00
21102;BME280;10709;49.006;12.100;2023-07-30T01:34:54;48934.09;;;-146.00;100.00
21102;BME280;10709;49.006;12.100;2023-07-30T01:37:21;48934.09;;;-146.00;100.00
21102;BME280;10709;49.006;12.100;2023-07-30T01:39:48;48922.34;;;-146.00;100.00
21102;BME280;10709;49.006;12.100;2023-07-30T01:42:16;48922.34;;;-146.00;100.00
21102;BME280;10709;49.006;12.100;2023-07-30T01:44:43;48918.44;;;-146.00;100.00
21102;BME280;10709;49.006;12.100;2023-07-30T01:47:09;48918.44;;;-146.00;100.00
21102;BME280;10709;49.006;12.100;2023-07-30T01:49:36;48918.44;;;-146.00;100.00
21102;BME280;10709;49.006;12.100;2023-07-30T01:52:02;48924.31;;;-146.00;100.00
21102;BME280;10709;49.006;12.100;2023-07-30T01:54:29;48914.50;;;-146.00;100.00
21102;BME280;10709;49.006;12.100;2023-07-30T01:56:55;48908.63;;;-146.00;100.00
21102;BME280;10709;49.006;12.100;2023-07-30T01:59:22;48906.69;;;-146.00;100.00
21102;BME280;10709;49.006;12.100;2023-07-30T02:01:49;48894.91;;;-146.00;100.00
21102;BME280;10709;49.006;12.100;2023-07-30T02:04:16;48898.84;;;-146.00;100.00
21102;BME280;10709;49.006;12.100;2023-07-30T02:06:44;48891.00;;;-146.00;100.00
21102;BME280;10709;49.006;12.100;2023-07-30T02:09:10;48894.91;;;-146.00;100.00
21102;BME280;10709;49.006;12.100;2023-07-30T02:11:37;48894.91;;;-146.00;100.00
21102;BME280;10709;49.006;12.100;2023-07-30T02:14:04;48887.09;;;-146.00;100.00
21102;BME280;10709;49.006;12.100;2023-07-30T02:16:31;48889.03;;;-146.00;100.00
21102;BME280;10709;49.006;12.100;2023-07-30T02:18:57;48883.16;;;-146.00;100.00
21102;BME280;10709;49.006;12.100;2023-07-30T02:21:24;48887.09;;;-146.00;100.00
21102;BME280;10709;49.006;12.100;2023-07-30T02:23:50;48875.34;;;-146.00;100.00
21102;BME280;10709;49.006;12.100;2023-07-30T02:26:17;48883.16;;;-146.00;100.00
21102;BME280;10709;49.006;12.100;2023-07-30T02:28:43;48891.00;;;-146.00;100.00
21102;BME280;10709;49.006;12.100;2023-07-30T02:31:10;48889.03;;;-146.00;100.00
21102;BME280;10709;49.006;12.100;2023-07-30T02:33:38;48877.28;;;-146.00;100.00
21102;BME280;10709;49.006;12.100;2023-07-30T02:36:04;48871.41;;;-146.00;100.00
21102;BME280;10709;49.006;12.100;2023-07-30T02:38:31;48863.56;;;-146.00;100.00
21102;BME280;10709;49.006;12.100;2023-07-30T02:40:58;48859.66;;;-146.00;100.00
21102;BME280;10709;49.006;12.100;2023-07-30T02:43:24;48857.69;;;-146.00;100.00
21102;BME280;10709;49.006;12.100;2023-07-30T02:45:51;48853.78;;;-146.00;100.00
21102;BME280;10709;49.006;12.100;2023-07-30T02:48:17;48851.81;;;-146.00;100.00
21102;BME280;10709;49.006;12.100;2023-07-30T02:50:44;48853.78;;;-146.00;100.00
21102;BME280;10709;49.006;12.100;2023-07-30T02:53:11;48851.81;;;-146.00;100.00
21102;BME280;10709;49.006;12.100;2023-07-30T02:55:38;48847.91;;;-146.00;100.00
21102;BME280;10709;49.006;12.100;2023-07-30T02:58:04;48853.78;;;-146.00;100.00
21102;BME280;10709;49.006;12.100;2023-07-30T03:00:31;48849.88;;;-146.00;100.00
21102;BME280;10709;49.006;12.100;2023-07-30T03:02:57;48851.81;;;-146.00;100.00
21102;BME280;10709;49.006;12.100;2023-07-30T03:05:24;48851.81;;;-146.00;100.00
21102;BME280;10709;49.006;12.100;2023-07-30T03:07:50;48851.81;;;-146.00;100.00
21102;BME280;10709;49.006;12.100;2023-07-30T03:10:17;48851.81;;;-146.00;100.00
21102;BME280;10709;49.006;12.100;2023-07-30T03:12:43;48851.81;;;-146.00;100.00
21102;BME280;10709;49.006;12.100;2023-07-30T03:15:10;48849.88;;;-146.00;100.00
21102;BME280;10709;49.006;12.100;2023-07-30T03:17:36;48847.91;;;-146.00;100.00
21102;BME280;10709;49.006;12.100;2023-07-30T03:20:03;48851.81;;;-146.00;100.00
21102;BME280;10709;49.006;12.100;2023-07-30T03:22:30;48851.81;;;-146.00;100.00
21102;BME280;10709;49.006;12.100;2023-07-30T03:24:57;48847.91;;;-146.00;100.00
21102;BME280;10709;49.006;12.100;2023-07-30T03:27:23;48849.88;;;-146.00;100.00
21102;BME280;10709;49.006;12.100;2023-07-30T03:29:50;48851.81;;;-146.00;100.00
21102;BME280;10709;49.006;12.100;2023-07-30T03:32:17;48851.81;;;-146.00;100.00
21102;BME280;10709;49.006;12.100;2023-07-30T03:34:43;48851.81;;;-146.00;100.00
21102;BME280;10709;49.006;12.100;2023-07-30T03:37:10;48851.81;;;-146.00;100.00
21102;BME280;10709;49.006;12.100;2023-07-30T03:39:36;48849.88;;;-146.00;100.00
21102;BME280;10709;49.006;12.100;2023-07-30T03:42:03;48851.81;;;-146.00;100.00
21102;BME280;10709;49.006;12.100;2023-07-30T03:44:30;48851.81;;;-146.00;100.00
21102;BME280;10709;49.006;12.100;2023-07-30T03:46:56;48849.88;;;-146.00;100.00
21102;BME280;10709;49.006;12.100;2023-07-30T03:49:23;48851.81;;;-146.00;100.00
21102;BME280;10709;49.006;12.100;2023-07-30T03:51:50;48851.81;;;-146.00;100.00
21102;BME280;10709;49.006;12.100;2023-07-30T03:54:16;48849.88;;;-146.00;100.00
21102;BME280;10709;49.006;12.100;2023-07-30T03:56:43;48853.78;;;-146.00;100.00
21102;BME280;10709;49.006;12.100;2023-07-30T03:59:09;48849.88;;;-146.00;100.00
21102;BME280;10709;49.006;12.100;2023-07-30T04:01:37;48849.88;;;-146.00;100.00
21102;BME280;10709;49.006;12.100;2023-07-30T04:04:04;48851.81;;;-146.00;100.00
21102;BME280;10709;49.006;12.100;2023-07-30T04:06:30;48851.81;;;-146.00;100.00
21102;BME280;10709;49.006;12.100;2023-07-30T04:08:57;48851.81;;;-146.00;100.00
21102;BME280;10709;49.006;12.100;2023-07-30T04:11:24;48855.75;;;-146.00;100.00
21102;BME280;10709;49.006;12.100;2023-07-30T04:13:50;48853.78;;;-146.00;100.00
21102;BME280;10709;49.006;12.100;2023-07-30T04:16:17;48855.75;;;-146.00;100.00
21102;BME280;10709;49.006;12.100;2023-07-30T04:18:43;48849.88;;;-146.00;100.00
21102;BME280;10709;49.006;12.100;2023-07-30T04:21:10;48855.75;;;-146.00;100.00
21102;BME280;10709;49.006;12.100;2023-07-30T04:23:36;48851.81;;;-146.00;100.00
21102;BME280;10709;49.006;12.100;2023-07-30T04:26:04;48853.78;;;-146.00;100.00
21102;BME280;10709;49.006;12.100;2023-07-30T04:28:31;48851.81;;;-146.00;100.00
21102;BME280;10709;49.006;12.100;2023-07-30T04:30:58;48849.88;;;-146.00;100.00
21102;BME280;10709;49.006;12.100;2023-07-30T04:33:24;48855.75;;;-146.00;100.00
21102;BME280;10709;49.006;12.100;2023-07-30T04:35:53;48855.75;;;-146.00;100.00
21102;BME280;10709;49.006;12.100;2023-07-30T04:38:19;48851.81;;;-146.00;100.00
21102;BME280;10709;49.006;12.100;2023-07-30T04:40:45;48853.78;;;-146.00;100.00
21102;BME280;10709;49.006;12.100;2023-07-30T04:43:12;48853.78;;;-146.00;100.00
21102;BME280;10709;49.006;12.100;2023-07-30T04:45:38;48855.75;;;-146.00;100.00
21102;BME280;10709;49.006;12.100;2023-07-30T04:48:05;48855.75;;;-146.00;100.00
21102;BME280;10709;49.006;12.100;2023-07-30T04:50:32;48859.66;;;-146.00;100.00
21102;BME280;10709;49.006;12.100;2023-07-30T04:52:58;48853.78;;;-146.00;100.00
21102;BME280;10709;49.006;12.100;2023-07-30T04:55:25;48853.78;;;-146.00;100.00
21102;BME280;10709;49.006;12.100;2023-07-30T04:57:51;48855.75;;;-146.00;100.00
21102;BME280;10709;49.006;12.100;2023-07-30T05:00:19;48859.66;;;-146.00;100.00
21102;BME280;10709;49.006;12.100;2023-07-30T05:02:45;48857.69;;;-146.00;100.00
21102;BME280;10709;49.006;12.100;2023-07-30T05:05:12;48855.75;;;-146.00;100.00
21102;BME280;10709;49.006;12.100;2023-07-30T05:07:39;48855.75;;;-146.00;100.00
21102;BME280;10709;49.006;12.100;2023-07-30T05:10:05;48863.56;;;-146.00;100.00
21102;BME280;10709;49.006;12.100;2023-07-30T05:12:34;48859.66;;;-146.00;100.00
21102;BME280;10709;49.006;12.100;2023-07-30T05:15:00;48859.66;;;-146.00;100.00
21102;BME280;10709;49.006;12.100;2023-07-30T05:17:29;48859.66;;;-146.00;100.00
21102;BME280;10709;49.006;12.100;2023-07-30T05:19:56;48855.75;;;-146.00;100.00
21102;BME280;10709;49.006;12.100;2023-07-30T05:22:23;48863.56;;;-146.00;100.00
21102;BME280;10709;49.006;12.100;2023-07-30T05:24:51;48857.69;;;-146.00;100.00
21102;BME280;10709;49.006;12.100;2023-07-30T05:27:17;48861.63;;;-146.00;100.00
21102;BME280;10709;49.006;12.100;2023-07-30T05:29:44;48865.53;;;-146.00;100.00
21102;BME280;10709;49.006;12.100;2023-07-30T05:32:14;48865.53;;;-146.00;100.00
21102;BME280;10709;49.006;12.100;2023-07-30T05:34:40;48871.41;;;-146.00;100.00
21102;BME280;10709;49.006;12.100;2023-07-30T05:37:07;48875.34;;;-146.00;100.00
21102;BME280;10709;49.006;12.100;2023-07-30T05:39:34;48881.22;;;-146.00;100.00
21102;BME280;10709;49.006;12.100;2023-07-30T05:42:00;48871.41;;;-146.00;100.00
21102;BME280;10709;49.006;12.100;2023-07-30T05:44:27;48871.41;;;-146.00;100.00
21102;BME280;10709;49.006;12.100;2023-07-30T05:46:53;48875.34;;;-146.00;100.00
21102;BME280;10709;49.006;12.100;2023-07-30T05:49:20;48887.09;;;-146.00;100.00
21102;BME280;10709;49.006;12.100;2023-07-30T05:51:47;48883.16;;;-146.00;100.00
21102;BME280;10709;49.006;12.100;2023-07-30T05:54:14;48883.16;;;-146.00;100.00
21102;BME280;10709;49.006;12.100;2023-07-30T05:56:41;48885.13;;;-146.00;100.00
21102;BME280;10709;49.006;12.100;2023-07-30T05:59:19;48887.09;;;-146.00;100.00
21102;BME280;10709;49.006;12.100;2023-07-30T06:02:18;48875.34;;;-146.00;100.00
21102;BME280;10709;49.006;12.100;2023-07-30T06:05:48;48871.41;;;-146.00;100.00
21102;BME280;10709;49.006;12.100;2023-07-30T06:08:34;48871.41;;;-146.00;100.00
21102;BME280;10709;49.006;12.100;2023-07-30T06:11:39;48879.25;;;-146.00;100.00
21102;BME280;10709;49.006;12.100;2023-07-30T06:15:05;48871.41;;;-146.00;100.00
21102;BME280;10709;49.006;12.100;2023-07-30T06:18:37;48869.44;;;-146.00;100.00
21102;BME280;10709;49.006;12.100;2023-07-30T06:22:04;48875.34;;;-146.00;100.00
21102;BME280;10709;49.006;12.100;2023-07-30T06:25:15;48867.50;;;-146.00;100.00
21102;BME280;10709;49.006;12.100;2023-07-30T06:28:19;48863.56;;;-146.00;100.00
21102;BME280;10709;49.006;12.100;2023-07-30T06:31:28;48869.44;;;-146.00;100.00
21102;BME280;10709;49.006;12.100;2023-07-30T06:34:22;48867.50;;;-146.00;100.00
21102;BME280;10709;49.006;12.100;2023-07-30T06:36:49;48871.41;;;-146.00;100.00
21102;BME280;10709;49.006;12.100;2023-07-30T06:39:16;48887.09;;;-146.00;100.00
21102;BME280;10709;49.006;12.100;2023-07-30T06:41:42;48875.34;;;-146.00;100.00
21102;BME280;10709;49.006;12.100;2023-07-30T06:44:09;48869.44;;;-146.00;100.00
21102;BME280;10709;49.006;12.100;2023-07-30T06:46:37;48871.41;;;-146.00;100.00
21102;BME280;10709;49.006;12.100;2023-07-30T06:49:04;48871.41;;;-146.00;100.00
21102;BME280;10709;49.006;12.100;2023-07-30T06:51:30;48871.41;;;-146.00;100.00
21102;BME280;10709;49.006;12.100;2023-07-30T06:53:57;48871.41;;;-146.00;100.00
21102;BME280;10709;49.006;12.100;2023-07-30T06:56:23;48889.03;;;-146.00;100.00
21102;BME280;10709;49.006;12.100;2023-07-30T06:58:50;48891.00;;;-146.00;100.00
21102;BME280;10709;49.006;12.100;2023-07-30T07:01:16;48887.09;;;-146.00;100.00
21102;BME280;10709;49.006;12.100;2023-07-30T07:03:44;48898.84;;;-146.00;100.00
21102;BME280;10709;49.006;12.100;2023-07-30T07:06:12;48883.16;;;-146.00;100.00
21102;BME280;10709;49.006;12.100;2023-07-30T07:08:39;48891.00;;;-146.00;100.00
21102;BME280;10709;49.006;12.100;2023-07-30T07:11:06;48889.03;;;-146.00;100.00
21102;BME280;10709;49.006;12.100;2023-07-30T07:13:34;48883.16;;;-146.00;100.00
21102;BME280;10709;49.006;12.100;2023-07-30T07:16:01;48894.91;;;-146.00;100.00
21102;BME280;10709;49.006;12.100;2023-07-30T07:18:27;48896.88;;;-146.00;100.00
21102;BME280;10709;49.006;12.100;2023-07-30T07:20:54;48902.75;;;-146.00;100.00
21102;BME280;10709;49.006;12.100;2023-07-30T07:23:21;48896.88;;;-146.00;100.00
21102;BME280;10709;49.006;12.100;2023-07-30T07:25:47;48906.69;;;-146.00;100.00
21102;BME280;10709;49.006;12.100;2023-07-30T07:28:14;48898.84;;;-146.00;100.00
21102;BME280;10709;49.006;12.100;2023-07-30T07:30:40;48918.44;;;-146.00;100.00
21102;BME280;10709;49.006;12.100;2023-07-30T07:33:07;48938.03;;;-146.00;100.00
21102;BME280;10709;49.006;12.100;2023-07-30T07:35:36;48918.44;;;-146.00;100.00
21102;BME280;10709;49.006;12.100;2023-07-30T07:38:02;48906.69;;;-146.00;100.00
21102;BME280;10709;49.006;12.100;2023-07-30T07:40:29;48932.13;;;-146.00;100.00
21102;BME280;10709;49.006;12.100;2023-07-30T07:42:55;48938.03;;;-146.00;100.00
21102;BME280;10709;49.006;12.100;2023-07-30T07:45:22;48957.59;;;-146.00;100.00
21102;BME280;10709;49.006;12.100;2023-07-30T07:47:48;48975.25;;;-146.00;100.00
21102;BME280;10709;49.006;12.100;2023-07-30T07:50:15;48987.00;;;-146.00;100.00
21102;BME280;10709;49.006;12.100;2023-07-30T07:52:42;48977.19;;;-146.00;100.00
21102;BME280;10709;49.006;12.100;2023-07-30T07:55:08;48965.44;;;-146.00;100.00
21102;BME280;10709;49.006;12.100;2023-07-30T07:57:35;48996.78;;;-146.00;100.00
21102;BME280;10709;49.006;12.100;2023-07-30T08:00:05;48988.94;;;-146.00;100.00
21102;BME280;10709;49.006;12.100;2023-07-30T08:02:31;48981.13;;;-146.00;100.00
21102;BME280;10709;49.006;12.100;2023-07-30T08:04:58;48988.94;;;-146.00;100.00
21102;BME280;10709;49.006;12.100;2023-07-30T08:07:25;49006.59;;;-146.00;100.00
21102;BME280;10709;49.006;12.100;2023-07-30T08:09:51;49028.13;;;-146.00;100.00
21102;BME280;10709;49.006;12.100;2023-07-30T08:12:19;48987.00;;;-146.00;100.00
21102;BME280;10709;49.006;12.100;2023-07-30T08:14:45;49006.59;;;-146.00;100.00
21102;BME280;10709;49.006;12.100;2023-07-30T08:17:12;49000.72;;;-146.00;100.00
21102;BME280;10709;49.006;12.100;2023-07-30T08:19:38;48965.44;;;-146.00;100.00
21102;BME280;10709;49.006;12.100;2023-07-30T08:22:05;48992.88;;;-146.00;100.00
21102;BME280;10709;49.006;12.100;2023-07-30T08:24:31;48996.78;;;-146.00;100.00
21102;BME280;10709;49.006;12.100;2023-07-30T08:26:58;48992.88;;;-146.00;100.00
21102;BME280;10709;49.006;12.100;2023-07-30T08:29:26;49006.59;;;-146.00;100.00
21102;BME280;10709;49.006;12.100;2023-07-30T08:31:52;48965.44;;;-146.00;100.00
21102;BME280;10709;49.006;12.100;2023-07-30T08:34:21;48985.03;;;-146.00;100.00
21102;BME280;10709;49.006;12.100;2023-07-30T08:36:48;49000.72;;;-146.00;100.00
21102;BME280;10709;49.006;12.100;2023-07-30T08:39:14;49006.59;;;-146.00;100.00
21102;BME280;10709;49.006;12.100;2023-07-30T08:41:41;49002.66;;;-146.00;100.00
21102;BME280;10709;49.006;12.100;2023-07-30T08:44:09;48992.88;;;-146.00;100.00
21102;BME280;10709;49.006;12.100;2023-07-30T08:46:36;48994.84;;;-146.00;100.00
21102;BME280;10709;49.006;12.100;2023-07-30T08:49:02;49008.53;;;-146.00;100.00
21102;BME280;10709;49.006;12.100;2023-07-30T08:51:31;49020.31;;;-146.00;100.00
21102;BME280;10709;49.006;12.100;2023-07-30T08:54:00;49034.00;;;-146.00;100.00
21102;BME280;10709;49.006;12.100;2023-07-30T08:56:27;49032.06;;;-146.00;100.00
21102;BME280;10709;49.006;12.100;2023-07-30T08:58:54;49020.31;;;-146.00;100.00
21102;BME280;10709;49.006;12.100;2023-07-30T09:01:26;49051.66;;;-146.00;100.00
21102;BME280;10709;49.006;12.100;2023-07-30T09:03:57;49039.88;;;-146.00;100.00
21102;BME280;10709;49.006;12.100;2023-07-30T09:06:26;49032.06;;;-146.00;100.00
21102;BME280;10709;49.006;12.100;2023-07-30T09:08:55;49024.22;;;-146.00;100.00
21102;BME280;10709;49.006;12.100;2023-07-30T09:11:25;49051.66;;;-146.00;98.11
21102;BME280;10709;49.006;12.100;2023-07-30T09:13:54;49063.41;;;-146.00;98.29
21102;BME280;10709;49.006;12.100;2023-07-30T09:16:25;49086.91;;;-146.00;96.35
21102;BME280;10709;49.006;12.100;2023-07-30T09:18:53;49081.03;;;-146.00;96.40
21102;BME280;10709;49.006;12.100;2023-07-30T09:21:29;49102.59;;;-146.00;94.88
21102;BME280;10709;49.006;12.100;2023-07-30T09:23:56;49063.41;;;-146.00;97.45
21102;BME280;10709;49.006;12.100;2023-07-30T09:26:24;49079.06;;;-146.00;95.81
21102;BME280;10709;49.006;12.100;2023-07-30T09:28:50;49086.91;;;-146.00;94.87
21102;BME280;10709;49.006;12.100;2023-07-30T09:31:17;49083.00;;;-146.00;93.44
21102;BME280;10709;49.006;12.100;2023-07-30T09:33:48;49073.19;;;-146.00;95.61
21102;BME280;10709;49.006;12.100;2023-07-30T09:36:16;49086.91;;;-146.00;93.74
21102;BME280;10709;49.006;12.100;2023-07-30T09:38:45;49084.94;;;-146.00;97.93
21102;BME280;10709;49.006;12.100;2023-07-30T09:41:12;49024.22;;;-146.00;100.00
21102;BME280;10709;49.006;12.100;2023-07-30T09:43:39;49039.88;;;-146.00;100.00
21102;BME280;10709;49.006;12.100;2023-07-30T09:46:09;49049.69;;;-146.00;100.00
21102;BME280;10709;49.006;12.100;2023-07-30T09:48:35;49051.66;;;-146.00;98.73
21102;BME280;10709;49.006;12.100;2023-07-30T09:51:03;49110.41;;;-146.00;96.91
21102;BME280;10709;49.006;12.100;2023-07-30T09:53:30;49067.31;;;-146.00;97.55
21102;BME280;10709;49.006;12.100;2023-07-30T09:56:05;49024.22;;;-146.00;100.00
21102;BME280;10709;49.006;12.100;2023-07-30T09:58:36;49022.25;;;-146.00;100.00
21102;BME280;10709;49.006;12.100;2023-07-30T10:01:04;49020.31;;;-146.00;100.00
21102;BME280;10709;49.006;12.100;2023-07-30T10:03:32;48996.78;;;-146.00;100.00
21102;BME280;10709;49.006;12.100;2023-07-30T10:06:05;48949.78;;;-146.00;100.00
21102;BME280;10709;49.006;12.100;2023-07-30T10:08:36;48889.03;;;-146.00;100.00
21102;BME280;10709;49.006;12.100;2023-07-30T10:11:05;48861.63;;;-146.00;100.00
21102;BME280;10709;49.006;12.100;2023-07-30T10:13:33;48859.66;;;-146.00;100.00
21102;BME280;10709;49.006;12.100;2023-07-30T10:16:01;48859.66;;;-146.00;100.00
21102;BME280;10709;49.006;12.100;2023-07-30T10:18:38;48855.75;;;-146.00;100.00
21102;BME280;10709;49.006;12.100;2023-07-30T10:21:09;48849.88;;;-146.00;100.00
21102;BME280;10709;49.006;12.100;2023-07-30T10:23:47;48849.88;;;-146.00;100.00
21102;BME280;10709;49.006;12.100;2023-07-30T10:26:26;48851.81;;;-146.00;100.00
21102;BME280;10709;49.006;12.100;2023-07-30T10:29:13;48851.81;;;-146.00;100.00
21102;BME280;10709;49.006;12.100;2023-07-30T10:31:41;48855.75;;;-146.00;100.00
21102;BME280;10709;49.006;12.100;2023-07-30T10:34:09;48851.81;;;-146.00;100.00
21102;BME280;10709;49.006;12.100;2023-07-30T10:36:50;48855.75;;;-146.00;100.00
21102;BME280;10709;49.006;12.100;2023-07-30T10:39:18;48855.75;;;-146.00;100.00
21102;BME280;10709;49.006;12.100;2023-07-30T10:41:50;48851.81;;;-146.00;100.00
21102;BME280;10709;49.006;12.100;2023-07-30T10:44:18;48851.81;;;-146.00;100.00
21102;BME280;10709;49.006;12.100;2023-07-30T10:46:46;48855.75;;;-146.00;100.00
21102;BME280;10709;49.006;12.100;2023-07-30T10:49:13;48851.81;;;-146.00;100.00
21102;BME280;10709;49.006;12.100;2023-07-30T10:51:39;48849.88;;;-146.00;100.00
21102;BME280;10709;49.006;12.100;2023-07-30T10:54:07;48849.88;;;-146.00;100.00
21102;BME280;10709;49.006;12.100;2023-07-30T10:56:37;48851.81;;;-146.00;100.00
21102;BME280;10709;49.006;12.100;2023-07-30T10:59:05;48851.81;;;-146.00;100.00
21102;BME280;10709;49.006;12.100;2023-07-30T11:01:39;48851.81;;;-146.00;100.00
21102;BME280;10709;49.006;12.100;2023-07-30T11:04:27;48851.81;;;-146.00;100.00
21102;BME280;10709;49.006;12.100;2023-07-30T11:06:53;48849.88;;;-146.00;100.00
21102;BME280;10709;49.006;12.100;2023-07-30T11:09:25;48851.81;;;-146.00;100.00
21102;BME280;10709;49.006;12.100;2023-07-30T11:11:53;48849.88;;;-146.00;100.00
21102;BME280;10709;49.006;12.100;2023-07-30T11:14:22;48849.88;;;-146.00;100.00
21102;BME280;10709;49.006;12.100;2023-07-30T11:16:51;48851.81;;;-146.00;100.00
21102;BME280;10709;49.006;12.100;2023-07-30T11:19:19;48851.81;;;-146.00;100.00
21102;BME280;10709;49.006;12.100;2023-07-30T11:21:50;48853.78;;;-146.00;100.00
21102;BME280;10709;49.006;12.100;2023-07-30T11:24:20;48851.81;;;-146.00;100.00
21102;BME280;10709;49.006;12.100;2023-07-30T11:26:57;48855.75;;;-146.00;100.00
21102;BME280;10709;49.006;12.100;2023-07-30T11:29:27;48855.75;;;-146.00;100.00
21102;BME280;10709;49.006;12.100;2023-07-30T11:31:58;48849.88;;;-146.00;100.00
21102;BME280;10709;49.006;12.100;2023-07-30T11:34:26;48855.75;;;-146.00;100.00
21102;BME280;10709;49.006;12.100;2023-07-30T11:36:54;48851.81;;;-146.00;100.00
21102;BME280;10709;49.006;12.100;2023-07-30T11:39:22;48855.75;;;-146.00;100.00
21102;BME280;10709;49.006;12.100;2023-07-30T11:41:49;48849.88;;;-146.00;100.00
21102;BME280;10709;49.006;12.100;2023-07-30T11:44:35;48849.88;;;-146.00;100.00
21102;BME280;10709;49.006;12.100;2023-07-30T11:47:01;48855.75;;;-146.00;100.00
21102;BME280;10709;49.006;12.100;2023-07-30T11:49:30;48851.81;;;-146.00;100.00
21102;BME280;10709;49.006;12.100;2023-07-30T11:52:07;48849.88;;;-146.00;100.00
21102;BME280;10709;49.006;12.100;2023-07-30T11:54:35;48851.81;;;-146.00;100.00
21102;BME280;10709;49.006;12.100;2023-07-30T11:57:02;48851.81;;;-146.00;100.00
21102;BME280;10709;49.006;12.100;2023-07-30T11:59:31;48851.81;;;-146.00;100.00
21102;BME280;10709;49.006;12.100;2023-07-30T12:01:58;48855.75;;;-146.00;100.00
21102;BME280;10709;49.006;12.100;2023-07-30T12:04:25;48859.66;;;-146.00;100.00
21102;BME280;10709;49.006;12.100;2023-07-30T12:06:52;48861.63;;;-146.00;100.00
21102;BME280;10709;49.006;12.100;2023-07-30T12:09:23;48863.56;;;-146.00;100.00
21102;BME280;10709;49.006;12.100;2023-07-30T12:11:53;48857.69;;;-146.00;100.00
21102;BME280;10709;49.006;12.100;2023-07-30T12:17:13;48855.75;;;-146.00;100.00
21102;BME280;10709;49.006;12.100;2023-07-30T12:19:44;48859.66;;;-146.00;100.00
21102;BME280;10709;49.006;12.100;2023-07-30T12:22:11;48857.69;;;-146.00;100.00
21102;BME280;10709;49.006;12.100;2023-07-30T12:24:37;48855.75;;;-146.00;100.00
21102;BME280;10709;49.006;12.100;2023-07-30T12:27:04;48851.81;;;-146.00;100.00
21102;BME280;10709;49.006;12.100;2023-07-30T12:29:30;48855.75;;;-146.00;100.00
21102;BME280;10709;49.006;12.100;2023-07-30T12:31:57;48851.81;;;-146.00;100.00
21102;BME280;10709;49.006;12.100;2023-07-30T12:34:25;48851.81;;;-146.00;100.00